Aviation Digital Data Service (ADDS)

Output produced by METARs form (1648 UTC 16 June 2019)
found at http://www.aviationweather.gov/metar/data/
 
METAR text: RJSI 161000Z 19008KT 9999 -SHRA FEW004 SCT020 BKN030 18/16 Q0988
Conditions at: RJSI (HANAMAKI AIRPORT, JP) observed 1000 UTC 16 June 2019
Temperature: 18.0°C (64°F)
Dewpoint: 16.0°C (61°F) [RH = 88%]
Pressure (altimeter): 29.17 inches Hg (988.0 mb)
Winds: from the S (190 degrees) at 9 MPH (8 knots; 4.1 m/s)
Visibility: 6 or more miles (10+ km)
Ceiling: 3000 feet AGL
Clouds: few clouds at 400 feet AGL
scattered clouds at 2000 feet AGL
broken clouds at 3000 feet AGL
Weather: -SHRA  (light rain showers)

METAR text: RJSI 160900Z 02003KT 330V060 9999 -SHRA FEW004 SCT020 BKN030 17/17 Q0987
Conditions at: RJSI (HANAMAKI AIRPORT, JP) observed 0900 UTC 16 June 2019
Temperature: 17.0°C (63°F)
Dewpoint: 17.0°C (63°F) [RH = 100%]
Pressure (altimeter): 29.14 inches Hg (987.0 mb)
Winds: from the NNE (20 degrees) at 3 MPH (3 knots; 1.5 m/s)
Visibility: 6 or more miles (10+ km)
Ceiling: 3000 feet AGL
Clouds: few clouds at 400 feet AGL
scattered clouds at 2000 feet AGL
broken clouds at 3000 feet AGL
Weather: -SHRA  (light rain showers)

METAR text: RJSI 160800Z 02004KT 9999 -SHRA FEW004 SCT020 BKN030 17/17 Q0987
Conditions at: RJSI (HANAMAKI AIRPORT, JP) observed 0800 UTC 16 June 2019
Temperature: 17.0°C (63°F)
Dewpoint: 17.0°C (63°F) [RH = 100%]
Pressure (altimeter): 29.14 inches Hg (987.0 mb)
Winds: from the NNE (20 degrees) at 5 MPH (4 knots; 2.1 m/s)
Visibility: 6 or more miles (10+ km)
Ceiling: 3000 feet AGL
Clouds: few clouds at 400 feet AGL
scattered clouds at 2000 feet AGL
broken clouds at 3000 feet AGL
Weather: -SHRA  (light rain showers)

METAR text: RJSI 160700Z 36003KT 320V050 9999 -SHRA FEW003 SCT010 BKN030 17/16 Q0987
Conditions at: RJSI (HANAMAKI AIRPORT, JP) observed 0700 UTC 16 June 2019
Temperature: 17.0°C (63°F)
Dewpoint: 16.0°C (61°F) [RH = 94%]
Pressure (altimeter): 29.14 inches Hg (987.0 mb)
Winds: from the N (360 degrees) at 3 MPH (3 knots; 1.5 m/s)
Visibility: 6 or more miles (10+ km)
Ceiling: 3000 feet AGL
Clouds: few clouds at 300 feet AGL
scattered clouds at 1000 feet AGL
broken clouds at 3000 feet AGL
Weather: -SHRA  (light rain showers)

METAR text: RJSI 160600Z VRB01KT 6000 -SHRA FEW003 SCT010 BKN025 17/16 Q0986
Conditions at: RJSI (HANAMAKI AIRPORT, JP) observed 0600 UTC 16 June 2019
Temperature: 17.0°C (63°F)
Dewpoint: 16.0°C (61°F) [RH = 94%]
Pressure (altimeter): 29.11 inches Hg (986.0 mb)
Winds: variable direction winds at 1 MPH (1 knots; 0.5 m/s)
Visibility: 4 miles ( 6 km)
Ceiling: 2500 feet AGL
Clouds: few clouds at 300 feet AGL
scattered clouds at 1000 feet AGL
broken clouds at 2500 feet AGL
Weather: -SHRA  (light rain showers)

METAR text: RJSI 160500Z 07003KT 040V110 5000 -SHRA BR FEW003 SCT015 BKN025 17/16 Q0986
Conditions at: RJSI (HANAMAKI AIRPORT, JP) observed 0500 UTC 16 June 2019
Temperature: 17.0°C (63°F)
Dewpoint: 16.0°C (61°F) [RH = 94%]
Pressure (altimeter): 29.11 inches Hg (986.0 mb)
Winds: from the ENE (70 degrees) at 3 MPH (3 knots; 1.5 m/s)
Visibility: 3 miles ( 5 km)
Ceiling: 2500 feet AGL
Clouds: few clouds at 300 feet AGL
scattered clouds at 1500 feet AGL
broken clouds at 2500 feet AGL
Weather: -SHRA BR  (light rain showers, mist)

METAR text: RJSI 160400Z 03005KT 6000 -SHRA FEW004 SCT015 BKN030 17/16 Q0986
Conditions at: RJSI (HANAMAKI AIRPORT, JP) observed 0400 UTC 16 June 2019
Temperature: 17.0°C (63°F)
Dewpoint: 16.0°C (61°F) [RH = 94%]
Pressure (altimeter): 29.11 inches Hg (986.0 mb)
Winds: from the NNE (30 degrees) at 6 MPH (5 knots; 2.6 m/s)
Visibility: 4 miles ( 6 km)
Ceiling: 3000 feet AGL
Clouds: few clouds at 400 feet AGL
scattered clouds at 1500 feet AGL
broken clouds at 3000 feet AGL
Weather: -SHRA  (light rain showers)

METAR text: RJSI 160300Z 02008KT 6000 -SHRA FEW004 SCT015 BKN040 16/16 Q0985
Conditions at: RJSI (HANAMAKI AIRPORT, JP) observed 0300 UTC 16 June 2019
Temperature: 16.0°C (61°F)
Dewpoint: 16.0°C (61°F) [RH = 100%]
Pressure (altimeter): 29.08 inches Hg (985.0 mb)
Winds: from the NNE (20 degrees) at 9 MPH (8 knots; 4.1 m/s)
Visibility: 4 miles ( 6 km)
Ceiling: 4000 feet AGL
Clouds: few clouds at 400 feet AGL
scattered clouds at 1500 feet AGL
broken clouds at 4000 feet AGL
Weather: -SHRA  (light rain showers)

METAR text: RJSI 160200Z 02008KT 5000 SHRA BR FEW004 SCT015 BKN030 15/15 Q0985
Conditions at: RJSI (HANAMAKI AIRPORT, JP) observed 0200 UTC 16 June 2019
Temperature: 15.0°C (59°F)
Dewpoint: 15.0°C (59°F) [RH = 100%]
Pressure (altimeter): 29.08 inches Hg (985.0 mb)
Winds: from the NNE (20 degrees) at 9 MPH (8 knots; 4.1 m/s)
Visibility: 3 miles ( 5 km)
Ceiling: 3000 feet AGL
Clouds: few clouds at 400 feet AGL
scattered clouds at 1500 feet AGL
broken clouds at 3000 feet AGL
Weather: SHRA BR  (rain showers, mist)

METAR text: RJSI 160126Z 03011KT 5000 SHRA BR FEW004 SCT015 BKN030 15/15 Q0985 RMK 1ST004 3CU015 6CU030 A2910
Conditions at: RJSI (HANAMAKI AIRPORT, JP) observed 0126 UTC 16 June 2019
Temperature: 15.0°C (59°F)
Dewpoint: 15.0°C (59°F) [RH = 100%]
Pressure (altimeter): 29.08 inches Hg (985.0 mb)
Winds: from the NNE (30 degrees) at 13 MPH (11 knots; 5.7 m/s)
Visibility: 3 miles ( 5 km)
Ceiling: 3000 feet AGL
Clouds: few clouds at 400 feet AGL
scattered clouds at 1500 feet AGL
broken clouds at 3000 feet AGL
Weather: SHRA BR  (rain showers, mist)

METAR text: RJSI 160100Z 02011KT 4000 SHRA BR FEW004 SCT020 BKN040 15/15 Q0985
Conditions at: RJSI (HANAMAKI AIRPORT, JP) observed 0100 UTC 16 June 2019
Temperature: 15.0°C (59°F)
Dewpoint: 15.0°C (59°F) [RH = 100%]
Pressure (altimeter): 29.08 inches Hg (985.0 mb)
Winds: from the NNE (20 degrees) at 13 MPH (11 knots; 5.7 m/s)
Visibility: 2.49 miles (4.01 km)
Ceiling: 4000 feet AGL
Clouds: few clouds at 400 feet AGL
scattered clouds at 2000 feet AGL
broken clouds at 4000 feet AGL
Weather: SHRA BR  (rain showers, mist)

METAR text: RJSI 160038Z 36011KT 4000 SHRA BR FEW004 SCT020 BKN050 15/15 Q0985 RMK 1ST004 4CU020 6CU050 A2910
Conditions at: RJSI (HANAMAKI AIRPORT, JP) observed 0038 UTC 16 June 2019
Temperature: 15.0°C (59°F)
Dewpoint: 15.0°C (59°F) [RH = 100%]
Pressure (altimeter): 29.08 inches Hg (985.0 mb)
Winds: from the N (360 degrees) at 13 MPH (11 knots; 5.7 m/s)
Visibility: 2.49 miles (4.01 km)
Ceiling: 5000 feet AGL
Clouds: few clouds at 400 feet AGL
scattered clouds at 2000 feet AGL
broken clouds at 5000 feet AGL
Weather: SHRA BR  (rain showers, mist)

METAR text: RJSI 160000Z 01014KT 6000 -SHRA FEW004 SCT030 BKN050 15/15 Q0985
Conditions at: RJSI (HANAMAKI AIRPORT, JP) observed 0000 UTC 16 June 2019
Temperature: 15.0°C (59°F)
Dewpoint: 15.0°C (59°F) [RH = 100%]
Pressure (altimeter): 29.08 inches Hg (985.0 mb)
Winds: from the N (10 degrees) at 16 MPH (14 knots; 7.2 m/s)
Visibility: 4 miles ( 6 km)
Ceiling: 5000 feet AGL
Clouds: few clouds at 400 feet AGL
scattered clouds at 3000 feet AGL
broken clouds at 5000 feet AGL
Weather: -SHRA  (light rain showers)

METAR text: RJSI 152300Z 36010KT 6000 -SHRA FEW004 SCT020 BKN040 15/14 Q0987
Conditions at: RJSI (HANAMAKI AIRPORT, JP) observed 2300 UTC 15 June 2019
Temperature: 15.0°C (59°F)
Dewpoint: 14.0°C (57°F) [RH = 94%]
Pressure (altimeter): 29.14 inches Hg (987.0 mb)
Winds: from the N (360 degrees) at 12 MPH (10 knots; 5.1 m/s)
Visibility: 4 miles ( 6 km)
Ceiling: 4000 feet AGL
Clouds: few clouds at 400 feet AGL
scattered clouds at 2000 feet AGL
broken clouds at 4000 feet AGL
Weather: -SHRA  (light rain showers)

METAR text: RJSI 152240Z 02010KT 8000 -SHRA FEW004 SCT020 BKN040 15/14 Q0987 RMK 1ST004 4CU020 6CU040 A2916
Conditions at: RJSI (HANAMAKI AIRPORT, JP) observed 2240 UTC 15 June 2019
Temperature: 15.0°C (59°F)
Dewpoint: 14.0°C (57°F) [RH = 94%]
Pressure (altimeter): 29.14 inches Hg (987.0 mb)
Winds: from the NNE (20 degrees) at 12 MPH (10 knots; 5.1 m/s)
Visibility: 5 miles ( 8 km)
Ceiling: 4000 feet AGL
Clouds: few clouds at 400 feet AGL
scattered clouds at 2000 feet AGL
broken clouds at 4000 feet AGL
Weather: -SHRA  (light rain showers)

METAR text: RJSI 151000Z 15004KT 9999 FEW008 SCT030 BKN040 17/14 Q1000
Conditions at: RJSI (HANAMAKI AIRPORT, JP) observed 1000 UTC 15 June 2019
Temperature: 17.0°C (63°F)
Dewpoint: 14.0°C (57°F) [RH = 82%]
Pressure (altimeter): 29.53 inches Hg (1000.0 mb)
Winds: from the SSE (150 degrees) at 5 MPH (4 knots; 2.1 m/s)
Visibility: 6 or more miles (10+ km)
Ceiling: 4000 feet AGL
Clouds: few clouds at 800 feet AGL
scattered clouds at 3000 feet AGL
broken clouds at 4000 feet AGL
Weather: no significant weather observed at this time

METAR text: RJSI 150900Z 17006KT 140V210 9999 FEW008 SCT030 BKN050 18/14 Q1002
Conditions at: RJSI (HANAMAKI AIRPORT, JP) observed 0900 UTC 15 June 2019
Temperature: 18.0°C (64°F)
Dewpoint: 14.0°C (57°F) [RH = 77%]
Pressure (altimeter): 29.59 inches Hg (1002.0 mb)
Winds: from the S (170 degrees) at 7 MPH (6 knots; 3.1 m/s)
Visibility: 6 or more miles (10+ km)
Ceiling: 5000 feet AGL
Clouds: few clouds at 800 feet AGL
scattered clouds at 3000 feet AGL
broken clouds at 5000 feet AGL
Weather: no significant weather observed at this time

METAR text: RJSI 150800Z 16010KT 130V200 9999 FEW015 SCT030 BKN040 17/14 Q1002
Conditions at: RJSI (HANAMAKI AIRPORT, JP) observed 0800 UTC 15 June 2019
Temperature: 17.0°C (63°F)
Dewpoint: 14.0°C (57°F) [RH = 82%]
Pressure (altimeter): 29.59 inches Hg (1002.0 mb)
Winds: from the SSE (160 degrees) at 12 MPH (10 knots; 5.1 m/s)
Visibility: 6 or more miles (10+ km)
Ceiling: 4000 feet AGL
Clouds: few clouds at 1500 feet AGL
scattered clouds at 3000 feet AGL
broken clouds at 4000 feet AGL
Weather: no significant weather observed at this time

METAR text: RJSI 150700Z 15010KT 100V180 9999 FEW015 SCT030 BKN050 18/14 Q1003
Conditions at: RJSI (HANAMAKI AIRPORT, JP) observed 0700 UTC 15 June 2019
Temperature: 18.0°C (64°F)
Dewpoint: 14.0°C (57°F) [RH = 77%]
Pressure (altimeter): 29.62 inches Hg (1003.0 mb)
Winds: from the SSE (150 degrees) at 12 MPH (10 knots; 5.1 m/s)
Visibility: 6 or more miles (10+ km)
Ceiling: 5000 feet AGL
Clouds: few clouds at 1500 feet AGL
scattered clouds at 3000 feet AGL
broken clouds at 5000 feet AGL
Weather: no significant weather observed at this time

METAR text: RJSI 150600Z 12009G19KT 9999 FEW010 SCT030 BKN050 19/14 Q1004
Conditions at: RJSI (HANAMAKI AIRPORT, JP) observed 0600 UTC 15 June 2019
Temperature: 19.0°C (66°F)
Dewpoint: 14.0°C (57°F) [RH = 73%]
Pressure (altimeter): 29.65 inches Hg (1004.0 mb)
Winds: from the ESE (120 degrees) at 10 MPH (9 knots; 4.6 m/s)
gusting to 22 MPH (19 knots; 9.8 m/s)
Visibility: 6 or more miles (10+ km)
Ceiling: 5000 feet AGL
Clouds: few clouds at 1000 feet AGL
scattered clouds at 3000 feet AGL
broken clouds at 5000 feet AGL
Weather: no significant weather observed at this time

METAR text: RJSI 150500Z 18006KT 140V210 9999 FEW010 SCT030 BKN050 19/15 Q1005
Conditions at: RJSI (HANAMAKI AIRPORT, JP) observed 0500 UTC 15 June 2019
Temperature: 19.0°C (66°F)
Dewpoint: 15.0°C (59°F) [RH = 78%]
Pressure (altimeter): 29.68 inches Hg (1005.0 mb)
Winds: from the S (180 degrees) at 7 MPH (6 knots; 3.1 m/s)
Visibility: 6 or more miles (10+ km)
Ceiling: 5000 feet AGL
Clouds: few clouds at 1000 feet AGL
scattered clouds at 3000 feet AGL
broken clouds at 5000 feet AGL
Weather: no significant weather observed at this time